Time;durP1;ratioP1;P1;durP2;ratioP2;P2;SDS_P1;SDS_P2;PMS_P1;PMS_P2;Temp;Humidity;BMP_temperature;BMP_pressure;BME280_temperature;BME280_humidity;BME280_pressure;Samples;Min_cycle;Max_cycle;Signal;HPM_P1;HPM_P2
2022/01/01 00:00:19;;;;;;;4.43;3.75;;;;;;;1.56;100.00;93980.78;2109962;28;20546;-86
2022/01/01 00:01:20;;;;;;;4.53;3.75;;;;;;;1.63;100.00;93987.00;2105893;28;20061;-90
2022/01/01 00:02:22;;;;;;;5.60;4.13;;;;;;;1.61;100.00;93980.53;2105622;28;20035;-85
2022/01/01 00:03:23;;;;;;;6.35;5.47;;;;;;;1.64;100.00;93985.13;2113613;28;20027;-87
2022/01/01 00:04:24;;;;;;;6.60;5.47;;;;;;;1.66;100.00;93982.91;2118842;27;20023;-87
2022/01/01 00:05:32;;;;;;;10.38;5.63;;;;;;;1.55;100.00;93989.78;2119733;27;21069;-89
2022/01/01 00:06:33;;;;;;;7.53;5.00;;;;;;;1.47;100.00;93991.47;2115392;27;20016;-85
2022/01/01 00:07:35;;;;;;;5.75;4.80;;;;;;;1.50;100.00;93985.53;2114260;28;20099;-87
2022/01/01 00:08:36;;;;;;;5.70;4.53;;;;;;;1.48;100.00;93996.38;2097359;28;20030;-88
2022/01/01 00:09:39;;;;;;;7.22;5.00;;;;;;;1.40;100.00;93986.00;2103475;28;20028;-87
2022/01/01 00:10:40;;;;;;;7.25;4.90;;;;;;;1.44;100.00;93992.13;2111436;28;20028;-85
2022/01/01 00:11:44;;;;;;;6.50;3.05;;;;;;;1.42;100.00;93984.56;2106377;28;20020;-87
2022/01/01 00:12:46;;;;;;;4.30;3.20;;;;;;;1.56;100.00;93994.72;2099068;28;20024;-87
2022/01/01 00:13:47;;;;;;;5.15;4.07;;;;;;;1.56;100.00;93988.69;2090630;28;20060;-89
2022/01/01 00:14:48;;;;;;;5.22;3.08;;;;;;;1.43;100.00;93991.38;2106452;28;20416;-89
2022/01/01 00:15:49;;;;;;;4.75;3.40;;;;;;;1.44;100.00;93998.16;2106729;28;20028;-89
2022/01/01 00:16:50;;;;;;;4.60;3.70;;;;;;;1.43;100.00;93991.38;2106055;28;20028;-86
2022/01/01 00:17:52;;;;;;;7.43;4.55;;;;;;;1.34;100.00;93992.63;2106590;28;20032;-86
2022/01/01 00:18:53;;;;;;;6.68;4.78;;;;;;;1.30;100.00;93997.78;2097904;28;20016;-84
2022/01/01 00:19:54;;;;;;;9.57;5.47;;;;;;;1.15;100.00;93990.59;2098281;28;20020;-86
2022/01/01 00:20:56;;;;;;;7.15;5.20;;;;;;;1.21;100.00;93986.63;2103264;28;20072;-88
2022/01/01 00:22:03;;;;;;;6.15;5.03;;;;;;;1.28;100.00;93994.72;2101334;28;20052;-88
2022/01/01 00:23:04;;;;;;;6.78;5.30;;;;;;;1.19;100.00;93992.25;2100593;27;20028;-85
2022/01/01 00:24:05;;;;;;;8.30;6.03;;;;;;;1.21;100.00;93992.66;2115045;28;20516;-87
2022/01/01 00:25:13;;;;;;;7.80;5.32;;;;;;;1.19;100.00;93994.09;2106607;28;20028;-86
2022/01/01 00:26:15;;;;;;;7.07;4.97;;;;;;;1.19;100.00;93994.88;2108809;27;20038;-86
2022/01/01 00:27:17;;;;;;;4.82;4.25;;;;;;;1.17;100.00;93989.16;2114248;28;20020;-88
2022/01/01 00:28:21;;;;;;;5.07;3.97;;;;;;;1.18;100.00;93987.28;2106427;28;20107;-86
2022/01/01 00:29:22;;;;;;;6.78;4.00;;;;;;;1.15;100.00;93996.63;2092493;28;20108;-88
2022/01/01 00:30:23;;;;;;;3.00;2.65;;;;;;;1.10;100.00;94003.97;2094062;28;20021;-87
2022/01/01 00:31:25;;;;;;;4.47;2.92;;;;;;;1.05;100.00;93998.94;2102608;28;20016;-88
2022/01/01 00:32:26;;;;;;;5.60;2.88;;;;;;;0.99;100.00;93996.56;2098227;28;20032;-87
2022/01/01 00:33:29;;;;;;;5.18;2.33;;;;;;;1.11;100.00;93997.63;2103197;27;20357;-83
2022/01/01 00:34:30;;;;;;;3.67;2.50;;;;;;;1.11;100.00;93995.75;2102369;28;20028;-86
2022/01/01 00:35:31;;;;;;;2.35;2.15;;;;;;;1.08;100.00;93996.44;2102974;28;20039;-87
2022/01/01 00:36:32;;;;;;;3.72;2.50;;;;;;;1.05;100.00;93999.72;2092304;28;20060;-87
2022/01/01 00:37:33;;;;;;;2.85;2.42;;;;;;;1.03;100.00;94001.94;2102529;28;20512;-85
2022/01/01 00:38:34;;;;;;;2.65;2.17;;;;;;;0.90;100.00;93998.56;2099887;28;20114;-88
2022/01/01 00:39:36;;;;;;;2.88;2.10;;;;;;;1.08;100.00;94003.56;2097981;28;20028;-87
2022/01/01 00:40:37;;;;;;;3.47;2.30;;;;;;;1.06;100.00;94008.41;2106253;28;20097;-84
2022/01/01 00:41:37;;;;;;;2.70;2.35;;;;;;;0.93;100.00;94003.16;2100250;28;20060;-86
2022/01/01 00:42:38;;;;;;;2.67;2.25;;;;;;;0.81;100.00;94000.53;2096304;28;20033;-84
2022/01/01 00:43:39;;;;;;;2.53;2.20;;;;;;;0.88;100.00;94005.22;2106449;28;20047;-86
2022/01/01 00:44:40;;;;;;;2.28;2.00;;;;;;;0.79;100.00;94015.91;2103565;28;20031;-90
2022/01/01 00:45:41;;;;;;;2.67;2.20;;;;;;;0.86;100.00;94020.59;2099302;28;20471;-88
2022/01/01 00:46:42;;;;;;;5.35;2.95;;;;;;;0.84;100.00;94013.06;2107250;28;20405;-86
2022/01/01 00:47:43;;;;;;;3.20;2.90;;;;;;;0.77;100.00;94010.19;2114776;28;20034;-86
2022/01/01 00:48:44;;;;;;;5.57;2.78;;;;;;;0.84;100.00;94002.53;2097683;28;20024;-86
2022/01/01 00:49:45;;;;;;;3.53;3.00;;;;;;;0.73;100.00;94004.81;2096297;28;20408;-89
2022/01/01 00:50:46;;;;;;;3.28;2.90;;;;;;;0.65;100.00;94007.56;2097933;28;20051;-85
2022/01/01 00:51:49;;;;;;;4.10;2.80;;;;;;;0.73;100.00;94006.69;2089918;28;20024;-91
2022/01/01 00:52:52;;;;;;;2.63;2.42;;;;;;;0.74;100.00;94005.59;2103876;28;20032;-85
2022/01/01 00:53:54;;;;;;;3.65;2.97;;;;;;;0.54;100.00;94003.88;2107390;28;20016;-84
2022/01/01 00:54:55;;;;;;;3.95;2.97;;;;;;;0.64;100.00;94003.41;2104685;27;20033;-85
2022/01/01 00:55:59;;;;;;;4.93;3.55;;;;;;;0.64;100.00;94001.56;2113574;28;20023;-87
2022/01/01 00:57:02;;;;;;;4.45;3.63;;;;;;;0.64;100.00;93995.53;2102512;28;20035;-87
2022/01/01 00:58:06;;;;;;;5.97;3.33;;;;;;;0.55;100.00;94006.16;2108721;28;20434;-87
2022/01/01 00:59:08;;;;;;;4.05;3.65;;;;;;;0.62;100.00;93998.50;2113268;28;20019;-86
2022/01/01 01:00:14;;;;;;;5.30;3.95;;;;;;;0.67;100.00;94002.78;2098212;28;20021;-86
2022/01/01 01:01:15;;;;;;;5.75;3.35;;;;;;;0.64;100.00;94006.81;2090944;28;20039;-88
2022/01/01 01:02:17;;;;;;;4.40;3.60;;;;;;;0.61;100.00;94007.47;2097640;28;20024;-84
2022/01/01 01:03:18;;;;;;;4.45;3.55;;;;;;;0.67;100.00;94006.16;2098063;28;20070;-87
2022/01/01 01:04:19;;;;;;;5.50;3.80;;;;;;;0.71;100.00;94011.53;2097714;28;20115;-88
2022/01/01 01:05:20;;;;;;;5.25;4.53;;;;;;;0.68;100.00;94005.06;2092799;28;20017;-85
2022/01/01 01:06:21;;;;;;;5.65;4.30;;;;;;;0.61;100.00;94007.47;2097947;28;20554;-87
2022/01/01 01:07:23;;;;;;;4.82;3.85;;;;;;;0.60;100.00;94008.56;2097771;28;20031;-87
2022/01/01 01:08:24;;;;;;;4.68;4.18;;;;;;;0.55;100.00;94013.28;2095168;28;20021;-86
2022/01/01 01:09:25;;;;;;;4.80;3.88;;;;;;;0.56;100.00;94007.69;2097654;28;20025;-90
2022/01/01 01:10:26;;;;;;;5.55;4.40;;;;;;;0.53;100.00;94004.94;2112241;28;20073;-86
2022/01/01 01:11:28;;;;;;;6.18;4.43;;;;;;;0.52;100.00;94014.72;2106642;28;20028;-84
2022/01/01 01:12:38;;;;;;;5.03;4.30;;;;;;;0.52;100.00;94008.69;2089845;28;20083;-85
2022/01/01 01:13:45;;;;;;;7.07;4.65;;;;;;;0.48;100.00;94006.72;2106055;27;20137;-89
2022/01/01 01:14:46;;;;;;;5.72;4.80;;;;;;;0.42;100.00;94012.53;2106067;28;20020;-87
2022/01/01 01:15:48;;;;;;;8.25;5.10;;;;;;;0.49;100.00;94013.53;2097088;28;20024;-87
2022/01/01 01:16:51;;;;;;;6.18;4.82;;;;;;;0.46;100.00;94016.03;2096718;28;20101;-84
2022/01/01 01:17:53;;;;;;;8.85;5.03;;;;;;;0.47;100.00;94018.31;2097650;28;20041;-83
2022/01/01 01:18:54;;;;;;;6.88;4.88;;;;;;;0.48;100.00;94029.59;2097921;28;20020;-86
2022/01/01 01:19:55;;;;;;;7.97;5.28;;;;;;;0.44;100.00;94028.72;2106020;28;20097;-89
2022/01/01 01:20:58;;;;;;;6.38;4.63;;;;;;;0.36;100.00;94030.41;2105588;28;20008;-87
2022/01/01 01:22:00;;;;;;;8.95;6.05;;;;;;;0.39;100.00;94032.34;2100557;28;20012;-89
2022/01/01 01:23:05;;;;;;;8.48;5.72;;;;;;;0.41;100.00;94035.44;2097001;28;20026;-86
2022/01/01 01:24:08;;;;;;;8.80;5.22;;;;;;;0.42;100.00;94044.09;2100369;28;20115;-88
2022/01/01 01:25:12;;;;;;;6.35;5.20;;;;;;;0.42;100.00;94038.81;2098647;28;20773;-86
2022/01/01 01:26:22;;;;;;;9.13;5.47;;;;;;;0.53;100.00;94033.88;2103759;28;20028;-86
2022/01/01 01:27:35;;;;;;;7.45;5.72;;;;;;;0.49;100.00;94042.44;2098308;28;20473;-85
2022/01/01 01:28:46;;;;;;;8.95;5.70;;;;;;;0.43;100.00;94037.72;2106575;27;20048;-88
2022/01/01 01:29:49;;;;;;;8.75;6.00;;;;;;;0.47;100.00;94044.63;2105728;28;20473;-88
2022/01/01 01:30:56;;;;;;;8.85;5.72;;;;;;;0.42;100.00;94046.72;2098066;28;20595;-91
2022/01/01 01:32:02;;;;;;;10.52;6.63;;;;;;;0.37;100.00;94044.31;2106856;28;20059;-87
2022/01/01 01:33:05;;;;;;;13.52;7.90;;;;;;;0.41;100.00;94038.06;2106110;28;20031;-87
2022/01/01 01:34:07;;;;;;;9.73;7.32;;;;;;;0.47;100.00;94043.88;2102568;28;20070;-90
2022/01/01 01:35:10;;;;;;;10.50;8.02;;;;;;;0.31;100.00;94043.75;2103446;28;20024;-89
2022/01/01 01:36:12;;;;;;;11.23;7.60;;;;;;;0.22;100.00;94043.84;2106445;28;20792;-85
2022/01/01 01:37:14;;;;;;;8.68;6.95;;;;;;;0.25;100.00;94050.31;2097730;28;20031;-86
2022/01/01 01:38:17;;;;;;;11.15;7.57;;;;;;;0.28;100.00;94049.66;2090993;28;20027;-86
2022/01/01 01:39:18;;;;;;;10.13;6.93;;;;;;;0.29;100.00;94053.81;2094520;28;20036;-86
2022/01/01 01:40:19;;;;;;;10.88;7.88;;;;;;;0.24;100.00;94048.78;2092134;28;20036;-87
2022/01/01 01:41:20;;;;;;;11.02;7.28;;;;;;;0.15;100.00;94048.13;2097520;28;20534;-89
2022/01/01 01:42:22;;;;;;;7.88;6.82;;;;;;;0.21;100.00;94044.94;2098711;28;20171;-85
2022/01/01 01:43:23;;;;;;;11.63;7.40;;;;;;;0.21;100.00;94044.16;2100359;28;20055;-86
2022/01/01 01:44:34;;;;;;;8.07;6.68;;;;;;;0.26;100.00;94046.56;2102118;28;20703;-88
2022/01/01 01:45:35;;;;;;;8.30;6.88;;;;;;;0.26;100.00;94046.56;2105998;28;20019;-87
2022/01/01 01:46:36;;;;;;;8.75;6.60;;;;;;;0.27;100.00;94048.13;2106177;28;20595;-87
2022/01/01 01:47:38;;;;;;;10.57;6.97;;;;;;;0.27;100.00;94050.75;2097579;28;20028;-87
2022/01/01 01:48:55;;;;;;;8.02;6.15;;;;;;;0.13;100.00;94052.91;2097722;28;20020;-89
2022/01/01 01:50:04;;;;;;;7.43;6.10;;;;;;;0.16;100.00;94052.28;2094502;28;20021;-89
2022/01/01 01:51:06;;;;;;;9.60;6.35;;;;;;;0.16;100.00;94055.66;2108431;27;20067;-89
2022/01/01 01:52:16;;;;;;;7.85;6.05;;;;;;;0.19;100.00;94056.88;2106024;28;20077;-84
2022/01/01 01:53:17;;;;;;;8.13;6.10;;;;;;;0.10;100.00;94069.34;2107368;28;20078;-85
2022/01/01 01:54:18;;;;;;;11.05;6.03;;;;;;;0.08;100.00;94066.28;2098016;28;20040;-86
2022/01/01 01:55:28;;;;;;;5.72;4.90;;;;;;;0.14;100.00;94060.50;2092564;28;20025;-87
2022/01/01 01:56:36;;;;;;;6.15;4.80;;;;;;;0.14;100.00;94067.63;2098803;28;20036;-86
2022/01/01 01:57:44;;;;;;;6.13;4.97;;;;;;;0.08;100.00;94066.28;2087198;28;20528;-83
2022/01/01 01:58:52;;;;;;;6.43;4.53;;;;;;;0.09;100.00;94059.91;2091204;28;20392;-88
2022/01/01 01:59:54;;;;;;;5.78;4.57;;;;;;;0.08;100.00;94061.00;2097458;28;20806;-86
2022/01/01 02:02:17;;;;;;;6.55;5.22;;;;;;;-0.05;100.00;94062.84;2125081;27;20475;-85
2022/01/01 02:03:18;;;;;;;6.47;4.63;;;;;;;-0.07;100.00;94065.81;2106147;28;20028;-88
2022/01/01 02:04:19;;;;;;;4.53;3.85;;;;;;;-0.15;100.00;94071.91;2097197;28;20024;-88
2022/01/01 02:05:23;;;;;;;5.25;4.25;;;;;;;-0.16;100.00;94073.00;2114488;28;20471;-83
2022/01/01 02:06:25;;;;;;;3.72;3.25;;;;;;;-0.09;100.00;94062.75;2106341;28;20024;-87
2022/01/01 02:07:30;;;;;;;4.93;3.35;;;;;;;-0.14;100.00;94064.78;2097049;28;20055;-87
2022/01/01 02:09:58;;;;;;;4.55;2.80;;;;;;;-0.03;100.00;94061.44;2147348;27;20192;-86
2022/01/01 02:11:02;;;;;;;4.28;3.35;;;;;;;0.02;100.00;94067.59;2130294;27;20175;-86
2022/01/01 02:12:08;;;;;;;4.80;3.67;;;;;;;0.08;100.00;94064.41;2122405;27;20020;-85
2022/01/01 02:13:18;;;;;;;3.70;3.20;;;;;;;0.05;100.00;94072.19;2130280;27;20023;-85
2022/01/01 02:16:11;;;;;;;4.40;3.38;;;;;;;0.12;100.00;94059.28;2122779;27;20790;-84
2022/01/01 02:17:10;;;;;;;3.50;3.20;;;;;;;0.18;100.00;94060.63;2130211;27;20076;-84
2022/01/01 02:18:14;;;;;;;7.32;3.38;;;;;;;0.29;100.00;94068.84;2121755;28;20476;-85
2022/01/01 02:19:25;;;;;;;4.55;3.58;;;;;;;0.34;100.00;94060.72;2105574;28;20027;-86
2022/01/01 02:20:30;;;;;;;6.55;3.53;;;;;;;0.22;100.00;94062.25;2107634;28;20024;-86
2022/01/01 02:21:36;;;;;;;3.95;3.20;;;;;;;0.12;100.00;94067.16;2114861;27;20154;-86
2022/01/01 02:22:48;;;;;;;3.20;2.90;;;;;;;0.14;100.00;94060.50;2114063;28;20110;-84
2022/01/01 02:23:57;;;;;;;3.42;2.97;;;;;;;0.06;100.00;94061.34;2114836;28;20024;-85
2022/01/01 02:24:58;;;;;;;3.80;3.00;;;;;;;0.03;100.00;94061.22;2123110;27;20026;-85
2022/01/01 02:26:00;;;;;;;3.58;3.17;;;;;;;-0.09;100.00;94060.13;2130928;27;20042;-84
2022/01/01 02:27:05;;;;;;;4.90;2.97;;;;;;;-0.03;100.00;94069.31;2130868;27;20034;-84
2022/01/01 02:28:07;;;;;;;3.50;3.00;;;;;;;-0.09;100.00;94056.69;2130240;27;20026;-87
2022/01/01 02:29:08;;;;;;;3.22;2.80;;;;;;;-0.07;100.00;94060.56;2113048;28;20105;-85
2022/01/01 02:30:28;;;;;;;4.18;3.50;;;;;;;-0.02;100.00;94068.22;2104805;28;20024;-84
2022/01/01 02:31:32;;;;;;;3.58;2.95;;;;;;;-0.01;100.00;94071.63;2118501;27;20468;-85
2022/01/01 02:32:33;;;;;;;4.13;3.53;;;;;;;-0.12;100.00;94063.38;2122169;27;20538;-85
2022/01/01 02:33:36;;;;;;;3.20;2.63;;;;;;;-0.02;100.00;94060.34;2121670;27;20023;-86
2022/01/01 02:34:37;;;;;;;3.85;2.85;;;;;;;0.03;100.00;94063.84;2121819;27;20049;-86
2022/01/01 02:35:38;;;;;;;4.93;2.90;;;;;;;0.04;100.00;94060.13;2121652;27;20114;-86
2022/01/01 02:36:42;;;;;;;4.05;3.17;;;;;;;0.08;100.00;94066.28;2121511;28;20452;-86
2022/01/01 02:37:45;;;;;;;4.35;3.13;;;;;;;-0.04;100.00;94057.28;2121693;28;20026;-87
2022/01/01 02:38:46;;;;;;;3.53;3.10;;;;;;;-0.05;100.00;94057.59;2113730;27;20485;-86
2022/01/01 02:39:51;;;;;;;3.67;2.63;;;;;;;0.10;100.00;94069.34;2113158;28;20099;-85
2022/01/01 02:40:53;;;;;;;5.07;3.22;;;;;;;-0.06;100.00;94072.59;2122300;27;20023;-83
2022/01/01 02:41:59;;;;;;;4.20;3.15;;;;;;;-0.13;100.00;94068.94;2113206;28;20051;-84
2022/01/01 02:43:00;;;;;;;3.42;2.75;;;;;;;-0.12;100.00;94068.66;2114978;27;20027;-86
2022/01/01 02:44:01;;;;;;;4.43;2.50;;;;;;;-0.07;100.00;94071.06;2121584;27;20027;-85
2022/01/01 02:45:07;;;;;;;3.17;2.53;;;;;;;-0.09;100.00;94070.63;2121479;28;20055;-84
2022/01/01 02:46:08;;;;;;;3.35;3.05;;;;;;;-0.07;100.00;94070.28;2122309;27;20026;-85
2022/01/01 02:47:09;;;;;;;3.17;2.88;;;;;;;-0.11;100.00;94070.16;2121498;28;20797;-85
2022/01/01 02:48:13;;;;;;;4.05;2.85;;;;;;;-0.12;100.00;94076.53;2121485;28;20042;-84
2022/01/01 02:49:14;;;;;;;3.60;2.95;;;;;;;-0.20;100.00;94069.50;2121723;27;20464;-83
2022/01/01 02:50:15;;;;;;;3.40;2.80;;;;;;;-0.17;100.00;94070.72;2121478;28;20110;-85
2022/01/01 02:51:16;;;;;;;5.22;3.08;;;;;;;-0.22;100.00;94076.16;2112981;28;20043;-85
2022/01/01 02:52:17;;;;;;;3.88;2.83;;;;;;;-0.19;100.00;94073.66;2112860;28;20509;-87
2022/01/01 02:53:18;;;;;;;4.07;2.67;;;;;;;-0.19;100.00;94072.88;2104532;28;20036;-85
2022/01/01 02:54:19;;;;;;;2.50;2.30;;;;;;;-0.21;100.00;94075.84;2112999;28;20023;-85
2022/01/01 02:55:19;;;;;;;2.72;2.53;;;;;;;-0.12;100.00;94081.78;2096448;28;20036;-85
2022/01/01 02:56:20;;;;;;;8.23;3.50;;;;;;;-0.16;100.00;94080.13;2108718;28;20016;-86
2022/01/01 02:57:21;;;;;;;4.35;2.75;;;;;;;-0.21;100.00;94075.06;2121391;28;20024;-86
2022/01/01 02:58:22;;;;;;;3.10;2.60;;;;;;;-0.14;100.00;94078.69;2104674;28;20119;-85
2022/01/01 02:59:23;;;;;;;4.90;3.28;;;;;;;-0.14;100.00;94078.69;2113049;28;20023;-86
2022/01/01 03:00:27;;;;;;;7.22;3.30;;;;;;;-0.22;100.00;94073.53;2112874;28;20024;-85
2022/01/01 03:01:54;;;;;;;3.22;2.90;;;;;;;-0.22;100.00;94073.53;2113389;28;20042;-85
2022/01/01 03:03:02;;;;;;;3.78;2.78;;;;;;;-0.28;100.00;94075.59;2121898;27;20376;-84
2022/01/01 03:04:09;;;;;;;2.97;2.65;;;;;;;-0.12;100.00;94076.53;2121352;28;20110;-85
2022/01/01 03:05:11;;;;;;;2.72;2.38;;;;;;;-0.19;100.00;94078.13;2121399;28;20081;-84
2022/01/01 03:06:21;;;;;;;4.25;3.50;;;;;;;-0.26;100.00;94076.06;2113057;28;20035;-85
2022/01/01 03:07:25;;;;;;;3.10;2.75;;;;;;;-0.27;100.00;94077.88;2114227;28;20028;-85
2022/01/01 03:08:26;;;;;;;6.15;3.85;;;;;;;-0.32;100.00;94077.31;2113342;28;20053;-84
2022/01/01 03:09:36;;;;;;;6.22;3.42;;;;;;;-0.33;100.00;94073.94;2105229;28;20050;-83
2022/01/01 03:10:37;;;;;;;5.65;3.97;;;;;;;-0.29;100.00;94077.44;2122343;27;20758;-84
2022/01/01 03:11:38;;;;;;;6.88;4.60;;;;;;;-0.28;100.00;94086.09;2112863;28;20032;-87
2022/01/01 03:12:39;;;;;;;5.60;3.85;;;;;;;-0.42;100.00;94083.75;2112766;28;20080;-86
2022/01/01 03:13:42;;;;;;;5.82;4.20;;;;;;;-0.39;100.00;94074.47;2121704;27;20030;-85
2022/01/01 03:14:46;;;;;;;4.82;3.83;;;;;;;-0.35;100.00;94076.13;2113307;28;20019;-84
2022/01/01 03:15:48;;;;;;;5.55;4.07;;;;;;;-0.36;100.00;94079.06;2113642;27;20085;-87
2022/01/01 03:16:49;;;;;;;4.20;3.50;;;;;;;-0.37;100.00;94080.91;2112804;28;20659;-85
2022/01/01 03:17:52;;;;;;;5.82;4.25;;;;;;;-0.32;100.00;94079.94;2113105;27;20024;-84
2022/01/01 03:18:55;;;;;;;4.70;3.75;;;;;;;-0.33;100.00;94078.41;2121657;27;20073;-85
2022/01/01 03:19:56;;;;;;;5.07;3.40;;;;;;;-0.29;100.00;94079.31;2121574;27;20042;-85
2022/01/01 03:20:57;;;;;;;4.78;4.28;;;;;;;-0.29;100.00;94082.69;2117660;28;20141;-83
2022/01/01 03:22:25;;;;;;;6.03;4.10;;;;;;;-0.39;100.00;94079.72;2115547;28;20073;-86
2022/01/01 03:23:27;;;;;;;4.47;3.60;;;;;;;-0.40;100.00;94083.41;2124261;27;20011;-85
2022/01/01 03:24:29;;;;;;;6.32;4.68;;;;;;;-0.43;100.00;94079.59;2115696;28;20046;-86
2022/01/01 03:25:30;;;;;;;6.50;4.28;;;;;;;-0.41;100.00;94077.41;2098923;28;20024;-86
2022/01/01 03:26:31;;;;;;;4.63;4.13;;;;;;;-0.40;100.00;94086.81;2098904;28;20488;-85
2022/01/01 03:27:32;;;;;;;7.10;4.90;;;;;;;-0.46;100.00;94074.97;2098790;28;20032;-86
2022/01/01 03:28:33;;;;;;;5.20;3.90;;;;;;;-0.42;100.00;94082.97;2115580;27;20062;-86
2022/01/01 03:29:35;;;;;;;5.82;3.95;;;;;;;-0.40;100.00;94081.56;2106896;28;20039;-87
2022/01/01 03:30:37;;;;;;;7.22;4.40;;;;;;;-0.47;100.00;94080.56;2098932;28;20024;-87
2022/01/01 03:31:37;;;;;;;5.90;4.45;;;;;;;-0.47;100.00;94081.31;2107317;28;20026;-86
2022/01/01 03:32:41;;;;;;;7.18;4.72;;;;;;;-0.50;100.00;94079.31;2107148;28;20031;-86
2022/01/01 03:33:42;;;;;;;5.70;4.25;;;;;;;-0.59;100.00;94073.38;2115878;27;20023;-87
2022/01/01 03:34:43;;;;;;;5.93;4.78;;;;;;;-0.51;100.00;94073.31;2118599;27;20026;-85
2022/01/01 03:35:48;;;;;;;5.38;4.38;;;;;;;-0.42;100.00;94075.88;2115483;28;20088;-86
2022/01/01 03:36:49;;;;;;;7.47;4.68;;;;;;;-0.41;100.00;94077.41;2123947;27;20023;-87
2022/01/01 03:37:50;;;;;;;5.68;4.63;;;;;;;-0.41;100.00;94080.03;2123897;27;20468;-88
2022/01/01 03:38:51;;;;;;;5.45;4.35;;;;;;;-0.46;100.00;94071.59;2107220;28;20472;-85
2022/01/01 03:39:52;;;;;;;6.63;4.65;;;;;;;-0.52;100.00;94074.41;2115561;27;20027;-85
2022/01/01 03:40:53;;;;;;;7.10;4.57;;;;;;;-0.53;100.00;94077.34;2123924;27;20027;-86
2022/01/01 03:41:58;;;;;;;7.57;5.60;;;;;;;-0.48;100.00;94071.13;2106807;28;20220;-84
2022/01/01 03:43:08;;;;;;;8.50;5.75;;;;;;;-0.48;100.00;94071.91;2115945;27;20060;-86
2022/01/01 03:44:10;;;;;;;8.23;5.28;;;;;;;-0.52;100.00;94071.78;2123790;27;20023;-85
2022/01/01 03:45:11;;;;;;;8.18;5.85;;;;;;;-0.56;100.00;94070.13;2107116;28;21745;-86
2022/01/01 03:46:15;;;;;;;8.25;6.28;;;;;;;-0.51;100.00;94073.31;2098602;28;20033;-85
2022/01/01 03:47:18;;;;;;;6.72;6.00;;;;;;;-0.47;100.00;94065.56;2107993;28;20020;-87
2022/01/01 03:48:19;;;;;;;9.75;6.43;;;;;;;-0.46;100.00;94072.34;2107328;28;20153;-85
2022/01/01 03:49:20;;;;;;;7.97;6.28;;;;;;;-0.48;100.00;94069.28;2106993;28;20472;-86
2022/01/01 03:50:21;;;;;;;7.93;5.90;;;;;;;-0.45;100.00;94075.72;2115390;28;20430;-86
2022/01/01 03:51:22;;;;;;;9.23;6.75;;;;;;;-0.42;100.00;94062.75;2106799;28;20019;-87
2022/01/01 03:52:23;;;;;;;12.05;6.95;;;;;;;-0.35;100.00;94070.88;2111402;28;20487;-87
2022/01/01 03:53:25;;;;;;;9.60;6.65;;;;;;;-0.35;100.00;94067.44;2098603;28;20549;-84
2022/01/01 03:54:26;;;;;;;11.98;6.72;;;;;;;-0.40;100.00;94067.66;2098733;28;20025;-87
2022/01/01 03:55:30;;;;;;;30.00;6.65;;;;;;;-0.41;100.00;94068.75;2111966;27;20024;-84
2022/01/01 03:56:31;;;;;;;25.55;6.07;;;;;;;-0.48;100.00;94066.66;2115461;28;20019;-87
2022/01/01 03:57:32;;;;;;;7.30;5.60;;;;;;;-0.43;100.00;94060.44;2111646;28;20047;-87
2022/01/01 03:58:33;;;;;;;9.57;5.85;;;;;;;-0.42;100.00;94054.84;2115258;28;20032;-86
2022/01/01 03:59:34;;;;;;;6.00;4.85;;;;;;;-0.44;100.00;94051.00;2121381;27;20423;-85
2022/01/01 04:00:39;;;;;;;7.15;4.82;;;;;;;-0.46;100.00;94045.31;2115502;27;20028;-85
2022/01/01 04:01:40;;;;;;;12.73;5.18;;;;;;;-0.46;100.00;94045.31;2106762;28;20111;-85
2022/01/01 04:02:42;;;;;;;5.88;4.85;;;;;;;-0.41;100.00;94055.63;2114203;28;20024;-85
2022/01/01 04:03:44;;;;;;;6.13;5.45;;;;;;;-0.38;100.00;94055.75;2115197;28;20031;-84
2022/01/01 04:04:46;;;;;;;7.78;6.20;;;;;;;-0.43;100.00;94045.44;2115410;28;20464;-86
2022/01/01 04:05:47;;;;;;;6.05;5.18;;;;;;;-0.45;100.00;94045.00;2115301;28;20015;-86
2022/01/01 04:06:48;;;;;;;8.68;6.40;;;;;;;-0.47;100.00;94044.56;2115250;28;20019;-86
2022/01/01 04:07:49;;;;;;;7.63;6.63;;;;;;;-0.39;100.00;94040.31;2123707;27;20019;-85
2022/01/01 04:08:50;;;;;;;8.05;6.07;;;;;;;-0.34;100.00;94046.13;2123646;27;20030;-86
2022/01/01 04:09:51;;;;;;;9.18;6.32;;;;;;;-0.36;100.00;94044.91;2123729;27;20541;-84
2022/01/01 04:10:52;;;;;;;8.65;6.88;;;;;;;-0.39;100.00;94035.06;2123489;27;20047;-84
2022/01/01 04:11:53;;;;;;;7.78;6.20;;;;;;;-0.36;100.00;94037.03;2123705;27;20027;-85
2022/01/01 04:12:54;;;;;;;9.35;6.28;;;;;;;-0.38;100.00;94037.38;2123835;27;20500;-85
2022/01/01 04:13:55;;;;;;;10.75;6.93;;;;;;;-0.33;100.00;94041.66;2106758;28;20063;-87
2022/01/01 04:14:57;;;;;;;7.18;6.38;;;;;;;-0.31;100.00;94037.63;2106979;28;20058;-85
2022/01/01 04:15:58;;;;;;;10.40;6.47;;;;;;;-0.33;100.00;94031.91;2098598;28;20024;-86
2022/01/01 04:16:59;;;;;;;9.57;6.90;;;;;;;-0.36;100.00;94027.28;2099570;28;20469;-86
2022/01/01 04:18:03;;;;;;;9.23;6.18;;;;;;;-0.34;100.00;94025.13;2115233;28;20050;-87
2022/01/01 04:19:05;;;;;;;7.18;5.95;;;;;;;-0.37;100.00;94032.88;2115673;27;20901;-84
2022/01/01 04:20:07;;;;;;;9.93;5.63;;;;;;;-0.39;100.00;94037.69;2114997;28;20496;-87
2022/01/01 04:21:15;;;;;;;7.72;6.22;;;;;;;-0.38;100.00;94036.59;2123779;27;20027;-86
2022/01/01 04:22:23;;;;;;;7.88;6.05;;;;;;;-0.52;100.00;94035.03;2115172;28;20487;-86
2022/01/01 04:23:29;;;;;;;8.32;6.25;;;;;;;-0.43;100.00;94031.56;2107479;28;20027;-88
2022/01/01 04:24:48;;;;;;;8.07;6.43;;;;;;;-0.49;100.00;94033.59;2108099;27;20070;-86
2022/01/01 04:25:49;;;;;;;7.70;5.85;;;;;;;-0.49;100.00;94038.06;2123838;27;20015;-86
2022/01/01 04:26:50;;;;;;;9.85;6.32;;;;;;;-0.51;100.00;94033.16;2123559;27;20031;-87
2022/01/01 04:27:53;;;;;;;7.40;5.95;;;;;;;-0.49;100.00;94032.81;2123620;27;20026;-84
2022/01/01 04:28:54;;;;;;;6.53;5.85;;;;;;;-0.51;100.00;94036.56;2123654;27;20027;-86
2022/01/01 04:29:55;;;;;;;7.65;5.85;;;;;;;-0.55;100.00;94034.91;2106652;28;20118;-85
2022/01/01 04:31:00;;;;;;;6.68;5.90;;;;;;;-0.50;100.00;94039.94;2115181;28;20032;-88
2022/01/01 04:32:02;;;;;;;7.28;5.97;;;;;;;-0.55;100.00;94035.66;2114974;28;20016;-85
2022/01/01 04:33:03;;;;;;;8.07;5.65;;;;;;;-0.50;100.00;94034.69;2106107;28;20031;-89
2022/01/01 04:34:04;;;;;;;7.55;6.18;;;;;;;-0.51;100.00;94031.28;2115198;28;20031;-85
2022/01/01 04:35:05;;;;;;;7.75;6.00;;;;;;;-0.48;100.00;94029.91;2123743;27;20038;-86
2022/01/01 04:36:06;;;;;;;8.48;6.28;;;;;;;-0.45;100.00;94031.84;2115081;28;20028;-86
2022/01/01 04:37:12;;;;;;;7.45;6.03;;;;;;;-0.51;100.00;94028.66;2098219;28;20024;-86
2022/01/01 04:38:36;;;;;;;6.82;5.70;;;;;;;-0.55;100.00;94040.91;2107389;28;20031;-87
2022/01/01 04:39:37;;;;;;;5.85;5.28;;;;;;;-0.57;100.00;94032.59;2116030;27;20007;-85
2022/01/01 04:40:38;;;;;;;8.80;6.00;;;;;;;-0.63;100.00;94035.72;2106744;28;20421;-86
2022/01/01 04:41:40;;;;;;;7.97;5.70;;;;;;;-0.60;100.00;94041.09;2098357;28;20037;-85
2022/01/01 04:42:41;;;;;;;7.80;5.95;;;;;;;-0.64;100.00;94039.44;2115315;27;20024;-86
2022/01/01 04:43:44;;;;;;;8.52;5.85;;;;;;;-0.61;100.00;94036.97;2114897;28;20015;-87
2022/01/01 04:44:44;;;;;;;7.95;5.80;;;;;;;-0.69;100.00;94037.78;2115345;28;20076;-86
2022/01/01 04:45:54;;;;;;;8.10;5.50;;;;;;;-0.64;100.00;94034.97;2106679;28;20024;-86
2022/01/01 04:46:56;;;;;;;6.63;5.28;;;;;;;-0.61;100.00;94034.34;2100668;28;20027;-88
2022/01/01 04:47:57;;;;;;;6.25;5.57;;;;;;;-0.65;100.00;94028.19;2115091;28;20090;-87
2022/01/01 04:48:57;;;;;;;7.93;5.65;;;;;;;-0.66;100.00;94037.16;2123988;27;20045;-86
2022/01/01 04:49:58;;;;;;;12.00;5.45;;;;;;;-0.68;100.00;94020.94;2114881;28;20088;-87
2022/01/01 04:50:59;;;;;;;7.28;5.28;;;;;;;-0.74;100.00;94026.72;2106615;28;20020;-86
2022/01/01 04:52:00;;;;;;;6.93;5.88;;;;;;;-0.68;100.00;94031.44;2114825;28;20020;-86
2022/01/01 04:53:01;;;;;;;6.53;5.53;;;;;;;-0.66;100.00;94024.03;2106655;28;20051;-83
2022/01/01 04:54:03;;;;;;;8.60;5.38;;;;;;;-0.81;100.00;94032.47;2106721;28;20075;-86
2022/01/01 04:55:04;;;;;;;7.40;5.40;;;;;;;-0.81;100.00;94029.84;2106671;28;20477;-86
2022/01/01 04:56:08;;;;;;;7.03;5.50;;;;;;;-0.71;100.00;94032.06;2106566;28;20028;-86
2022/01/01 04:57:10;;;;;;;8.15;6.32;;;;;;;-0.72;100.00;94030.56;2107063;28;20020;-87
2022/01/01 04:58:17;;;;;;;7.53;5.68;;;;;;;-0.68;100.00;94026.19;2123353;27;20023;-87
2022/01/01 04:59:18;;;;;;;7.43;4.57;;;;;;;-0.76;100.00;94027.78;2123240;27;20022;-86